createdAt,value
2023-05-13T00:01:00.107Z,4.70
2023-05-13T00:06:22.059Z,5.00
2023-05-13T00:11:44.050Z,4.60
2023-05-13T00:17:05.961Z,5.10
2023-05-13T00:22:27.716Z,5.50
2023-05-13T00:27:49.615Z,5.30
2023-05-13T00:33:11.669Z,5.40
2023-05-13T00:38:33.506Z,5.10
2023-05-13T00:43:56.934Z,4.50
2023-05-13T00:49:18.884Z,4.90
2023-05-13T00:54:41.165Z,4.90
2023-05-13T01:00:03.918Z,4.80
2023-05-13T01:05:31.853Z,5.40
2023-05-13T01:11:04.323Z,5.50
2023-05-13T01:16:31.628Z,5.60
2023-05-13T01:21:53.598Z,5.50
2023-05-13T01:27:19.514Z,5.10
2023-05-13T01:32:41.654Z,5.30
2023-05-13T01:38:04.931Z,5.20
2023-05-13T01:43:27.501Z,5.40
2023-05-13T01:48:49.211Z,5.40
2023-05-13T01:54:12.202Z,5.20
2023-05-13T01:59:39.558Z,5.50
2023-05-13T02:05:01.386Z,5.70
2023-05-13T02:10:23.238Z,5.80
2023-05-13T02:15:45.376Z,6.10
2023-05-13T02:21:07.406Z,5.60
2023-05-13T02:26:29.206Z,5.70
2023-05-13T02:31:51.403Z,5.60
2023-05-13T02:37:13.042Z,6.50
2023-05-13T02:42:37.919Z,6.30
2023-05-13T02:48:00.435Z,6.10
2023-05-13T02:53:23.277Z,6.60
2023-05-13T02:58:50.584Z,6.80
2023-05-13T03:04:12.424Z,6.90
2023-05-13T03:09:35.288Z,6.30
2023-05-13T03:14:56.867Z,6.40
2023-05-13T03:20:19.065Z,6.50
2023-05-13T03:25:41.661Z,6.80
2023-05-13T03:31:03.771Z,6.40
2023-05-13T03:36:30.610Z,6.90
2023-05-13T03:41:52.828Z,6.30
2023-05-13T03:47:14.480Z,6.50
2023-05-13T03:52:36.287Z,6.40
2023-05-13T03:57:58.037Z,6.30
2023-05-13T04:03:20.774Z,6.60
2023-05-13T04:08:43.753Z,5.60
2023-05-13T04:14:05.444Z,5.90
2023-05-13T04:19:27.213Z,6.40
2023-05-13T04:24:52.138Z,6.10
2023-05-13T04:30:14.201Z,6.80
2023-05-13T04:35:37.090Z,5.60
2023-05-13T04:40:59.678Z,6.70
2023-05-13T04:46:30.941Z,5.60
2023-05-13T04:51:55.427Z,5.30
2023-05-13T04:57:18.073Z,5.60
2023-05-13T05:02:39.892Z,6.00
2023-05-13T05:08:01.555Z,5.80
2023-05-13T05:13:23.379Z,5.70
2023-05-13T05:18:45.627Z,5.90
2023-05-13T05:24:07.650Z,6.30
2023-05-13T05:29:32.165Z,7.80
2023-05-13T05:34:53.880Z,6.20
2023-05-13T05:40:15.962Z,6.40
2023-05-13T05:45:40.744Z,7.40
2023-05-13T05:51:05.605Z,6.80
2023-05-13T05:56:30.380Z,6.50
2023-05-13T06:01:52.173Z,7.30
2023-05-13T06:07:13.897Z,7.40
2023-05-13T06:12:36.013Z,10.50
2023-05-13T06:17:57.960Z,9.00
2023-05-13T06:23:20.453Z,9.70
2023-05-13T06:28:41.871Z,8.50
2023-05-13T06:34:03.782Z,7.70
2023-05-13T06:39:25.621Z,6.10
2023-05-13T06:44:50.474Z,7.20
2023-05-13T06:50:20.360Z,6.30
2023-05-13T06:55:43.624Z,5.10
2023-05-13T07:01:05.606Z,4.70
2023-05-13T07:06:27.705Z,4.60
2023-05-13T07:11:50.556Z,4.30
2023-05-13T07:17:12.569Z,4.00
2023-05-13T07:22:38.822Z,3.50
2023-05-13T07:28:01.590Z,3.30
2023-05-13T07:33:25.598Z,3.40
2023-05-13T07:38:48.098Z,3.30
2023-05-13T07:44:13.204Z,3.10
2023-05-13T07:49:35.079Z,2.80
2023-05-13T07:54:56.807Z,2.80
2023-05-13T08:00:18.753Z,3.20
2023-05-13T08:05:40.867Z,7.40
2023-05-13T08:11:02.906Z,3.30
2023-05-13T08:16:24.813Z,5.30
2023-05-13T08:21:46.749Z,3.40
2023-05-13T08:27:08.629Z,4.30
2023-05-13T08:32:30.559Z,3.50
2023-05-13T08:37:52.337Z,2.70
2023-05-13T08:43:16.624Z,2.80
2023-05-13T08:48:39.613Z,3.10
2023-05-13T08:54:01.349Z,2.50
2023-05-13T08:59:23.268Z,3.40
2023-05-13T09:04:46.844Z,3.10
2023-05-13T09:10:09.500Z,2.70
2023-05-13T09:15:33.240Z,2.70
2023-05-13T09:20:55.279Z,3.10
2023-05-13T09:26:34.890Z,2.80
2023-05-13T09:32:01.039Z,2.90
2023-05-13T09:37:23.927Z,2.90
2023-05-13T09:42:47.208Z,3.00
2023-05-13T09:48:09.536Z,2.70
2023-05-13T09:53:31.571Z,2.80
2023-05-13T09:58:53.431Z,2.50
2023-05-13T10:04:15.793Z,2.80
2023-05-13T10:09:37.955Z,2.90
2023-05-13T10:15:02.390Z,3.60
2023-05-13T10:20:26.550Z,2.50
2023-05-13T10:25:56.086Z,2.40
2023-05-13T10:31:18.179Z,2.80
2023-05-13T10:37:08.644Z,2.90
2023-05-13T10:42:38.507Z,2.70
2023-05-13T10:48:10.813Z,2.40
2023-05-13T10:53:37.349Z,2.10
2023-05-13T10:59:01.537Z,2.00
2023-05-13T11:04:23.376Z,2.50
2023-05-13T11:09:50.432Z,2.80
2023-05-13T11:15:22.208Z,2.60
2023-05-13T11:21:05.604Z,2.70
2023-05-13T11:26:43.799Z,2.60
2023-05-13T11:32:07.069Z,2.90
2023-05-13T11:37:31.032Z,3.40
2023-05-13T11:42:54.093Z,2.90
2023-05-13T11:48:23.342Z,2.40
2023-05-13T11:53:45.381Z,2.60
2023-05-13T11:59:14.847Z,3.10
2023-05-13T12:04:36.600Z,5.40
2023-05-13T12:10:00.291Z,5.80
2023-05-13T12:15:23.263Z,3.50
2023-05-13T12:20:46.095Z,3.80
2023-05-13T12:26:08.385Z,3.10
2023-05-13T12:31:31.247Z,3.30
2023-05-13T12:36:53.419Z,3.00
2023-05-13T12:42:16.461Z,3.80
2023-05-13T12:47:51.654Z,3.20
2023-05-13T12:53:13.489Z,3.90
2023-05-13T12:58:35.612Z,3.30
2023-05-13T13:03:57.189Z,4.00
2023-05-13T13:09:19.373Z,3.10
2023-05-13T13:14:41.250Z,3.30
2023-05-13T13:20:04.942Z,3.60
2023-05-13T13:25:27.296Z,4.30
2023-05-13T13:30:51.715Z,3.50
2023-05-13T13:36:13.478Z,3.30
2023-05-13T13:41:35.707Z,3.50
2023-05-13T13:46:58.559Z,4.00
2023-05-13T13:52:20.067Z,2.80
2023-05-13T13:57:42.097Z,3.00
2023-05-13T14:03:03.792Z,24.40
2023-05-13T14:08:25.668Z,4.40
2023-05-13T14:13:50.553Z,5.30
2023-05-13T14:19:12.396Z,3.30
2023-05-13T14:24:34.103Z,3.60
2023-05-13T14:29:56.188Z,3.50
2023-05-13T14:35:19.123Z,3.80
2023-05-13T14:40:40.845Z,5.00
2023-05-13T14:46:02.678Z,4.10
2023-05-13T14:51:24.510Z,3.40
2023-05-13T14:56:54.157Z,3.20
2023-05-13T15:02:18.535Z,3.20
2023-05-13T15:07:40.721Z,3.50
2023-05-13T15:13:02.336Z,3.40
2023-05-13T15:18:26.595Z,2.80
2023-05-13T15:23:48.920Z,3.90
2023-05-13T15:29:10.755Z,3.80
2023-05-13T15:34:32.580Z,3.20
2023-05-13T15:39:55.113Z,3.40
2023-05-13T15:45:17.044Z,3.60
2023-05-13T15:50:39.179Z,3.10
2023-05-13T15:56:01.006Z,2.70
2023-05-13T16:01:23.070Z,2.80
2023-05-13T16:06:45.267Z,3.00
2023-05-13T16:12:10.654Z,2.90
2023-05-13T16:17:34.756Z,3.00
2023-05-13T16:22:56.366Z,6.40
2023-05-13T16:28:18.496Z,7.20
2023-05-13T16:33:40.859Z,4.40
2023-05-13T16:39:02.653Z,3.50
2023-05-13T16:44:25.145Z,3.30
2023-05-13T16:49:49.998Z,3.50
2023-05-13T16:55:13.368Z,4.50
2023-05-13T17:00:34.988Z,3.60
2023-05-13T17:06:00.328Z,4.30
2023-05-13T17:11:22.138Z,5.40
2023-05-13T17:16:44.109Z,5.90
2023-05-13T17:22:06.247Z,6.00
2023-05-13T17:27:29.763Z,5.90
2023-05-13T17:32:51.773Z,3.30
2023-05-13T17:38:14.212Z,4.00
2023-05-13T17:43:36.489Z,3.80
2023-05-13T17:48:58.822Z,11.10
2023-05-13T17:54:29.018Z,9.50
2023-05-13T17:59:52.482Z,9.50
2023-05-13T18:05:14.287Z,6.60
2023-05-13T18:10:36.321Z,5.30
2023-05-13T18:15:57.907Z,5.20
2023-05-13T18:21:19.979Z,4.70
2023-05-13T18:26:42.314Z,6.50
2023-05-13T18:32:05.150Z,5.70
2023-05-13T18:37:47.428Z,5.90
2023-05-13T18:43:09.984Z,7.40
2023-05-13T18:48:32.900Z,8.20
2023-05-13T18:53:54.656Z,9.70
2023-05-13T18:59:16.982Z,9.40
2023-05-13T19:04:39.304Z,8.80
2023-05-13T19:10:00.959Z,10.80
2023-05-13T19:15:25.381Z,11.20
2023-05-13T19:20:47.908Z,12.00
2023-05-13T19:26:10.149Z,14.60
2023-05-13T19:31:35.611Z,17.30
2023-05-13T19:36:58.904Z,18.90
2023-05-13T19:42:21.036Z,18.90
2023-05-13T19:47:42.799Z,16.00
2023-05-13T19:53:04.593Z,13.70
2023-05-13T19:58:26.622Z,11.40
2023-05-13T20:03:48.460Z,12.20
2023-05-13T20:09:12.087Z,11.40
2023-05-13T20:14:46.112Z,11.70
2023-05-13T20:20:08.581Z,11.60
2023-05-13T20:25:37.011Z,13.40
2023-05-13T20:31:02.075Z,12.50
2023-05-13T20:36:24.633Z,13.60
2023-05-13T20:41:48.787Z,12.70
2023-05-13T20:47:14.164Z,11.30
2023-05-13T20:52:36.632Z,10.70
2023-05-13T20:58:05.757Z,11.40
2023-05-13T21:03:30.796Z,11.10
2023-05-13T21:08:55.523Z,11.70
2023-05-13T21:14:17.910Z,12.30
2023-05-13T21:19:41.289Z,12.90
2023-05-13T21:25:06.036Z,13.80
2023-05-13T21:30:27.660Z,14.30
2023-05-13T21:36:14.008Z,13.30
2023-05-13T21:41:36.275Z,17.90
2023-05-13T21:46:58.400Z,18.80
2023-05-13T21:52:20.067Z,22.70
2023-05-13T21:57:44.787Z,23.10
2023-05-13T22:03:06.984Z,27.90
2023-05-13T22:08:30.159Z,34.40
2023-05-13T22:13:51.901Z,34.90
2023-05-13T22:19:16.584Z,32.90
2023-05-13T22:24:38.417Z,35.10
2023-05-13T22:30:00.004Z,36.60
2023-05-13T22:35:21.664Z,45.60
2023-05-13T22:40:43.300Z,34.30
2023-05-13T22:46:05.609Z,30.30
2023-05-13T22:51:27.341Z,23.80
2023-05-13T22:56:49.376Z,18.80
2023-05-13T23:02:11.185Z,18.80
2023-05-13T23:07:33.397Z,18.50
2023-05-13T23:12:55.443Z,18.20
2023-05-13T23:18:16.909Z,17.40
2023-05-13T23:23:39.225Z,18.00
2023-05-13T23:29:00.688Z,15.50
2023-05-13T23:34:25.526Z,15.70
2023-05-13T23:39:47.555Z,14.20
2023-05-13T23:45:11.606Z,13.10
2023-05-13T23:50:33.141Z,13.90
2023-05-13T23:55:55.143Z,12.70
